Time;durP1;ratioP1;P1;durP2;ratioP2;P2;SDS_P1;SDS_P2;PMS_P1;PMS_P2;Temp;Humidity;BMP_temperature;BMP_pressure;BME280_temperature;BME280_humidity;BME280_pressure;Samples;Min_cycle;Max_cycle;Signal;HPM_P1;HPM_P2
2021/01/16 00:00:19;;;;;;;37.50;15.57;;;;;;;-1.56;80.36;97081.97;5086067;28;20403;-70
2021/01/16 00:02:45;;;;;;;39.20;16.08;;;;;;;-1.52;80.28;97087.66;5081922;28;20047;-70
2021/01/16 00:05:15;;;;;;;37.00;14.98;;;;;;;-1.49;80.21;97088.06;5086049;28;20057;-70
2021/01/16 00:07:42;;;;;;;39.72;15.63;;;;;;;-1.46;80.23;97090.28;5087632;28;20052;-70
2021/01/16 00:10:09;;;;;;;45.92;16.42;;;;;;;-1.42;80.13;97085.28;5084062;28;20077;-71
2021/01/16 00:12:35;;;;;;;36.70;15.45;;;;;;;-1.42;80.09;97087.97;5067387;28;20053;-71
2021/01/16 00:15:01;;;;;;;36.03;15.43;;;;;;;-1.37;79.88;97091.59;5066207;28;20063;-71
2021/01/16 00:17:27;;;;;;;41.35;16.23;;;;;;;-1.37;80.01;97090.78;5066896;28;20055;-70
2021/01/16 00:19:53;;;;;;;34.42;14.77;;;;;;;-1.46;79.65;97087.63;5066745;28;20048;-71
2021/01/16 00:22:20;;;;;;;38.28;15.13;;;;;;;-1.45;79.68;97097.25;5066472;28;20079;-71
2021/01/16 00:24:45;;;;;;;35.47;15.18;;;;;;;-1.52;79.93;97088.47;5066515;28;20133;-70
2021/01/16 00:27:11;;;;;;;40.28;16.58;;;;;;;-1.51;80.01;97099.97;5065813;28;20052;-71
2021/01/16 00:29:37;;;;;;;36.00;15.02;;;;;;;-1.55;79.94;97098.81;5067076;28;20075;-71
2021/01/16 00:32:04;;;;;;;39.25;15.32;;;;;;;-1.62;80.32;97094.38;5065749;28;20048;-71
2021/01/16 00:34:30;;;;;;;39.13;15.70;;;;;;;-1.60;80.46;97096.81;5066910;28;20495;-71
2021/01/16 00:36:56;;;;;;;38.83;15.50;;;;;;;-1.61;80.30;97103.19;5066371;28;20116;-71
2021/01/16 00:39:23;;;;;;;35.83;15.15;;;;;;;-1.56;80.40;97095.34;5066980;28;20395;-72
2021/01/16 00:41:49;;;;;;;36.25;15.02;;;;;;;-1.63;80.10;97102.59;5066439;28;20052;-71
2021/01/16 00:44:15;;;;;;;31.38;14.38;;;;;;;-1.66;80.31;97097.72;5068138;28;20055;-71
2021/01/16 00:46:40;;;;;;;31.10;13.65;;;;;;;-1.64;80.28;97103.63;5069585;28;20048;-71
2021/01/16 00:49:06;;;;;;;36.20;14.93;;;;;;;-1.62;80.06;97105.06;5069049;28;20051;-71
2021/01/16 00:51:32;;;;;;;29.85;14.30;;;;;;;-1.55;79.83;97104.97;5069940;28;20055;-70
2021/01/16 00:53:58;;;;;;;32.53;14.00;;;;;;;-1.53;79.73;97102.88;5069153;28;20052;-71
2021/01/16 00:56:25;;;;;;;33.22;14.65;;;;;;;-1.59;79.40;97109.13;5069642;28;20047;-72
2021/01/16 00:58:51;;;;;;;31.73;13.32;;;;;;;-1.58;79.70;97118.75;5068777;28;20568;-70
2021/01/16 01:01:17;;;;;;;32.80;13.85;;;;;;;-1.58;79.86;97116.09;5069620;28;20063;-70
2021/01/16 01:03:43;;;;;;;31.70;12.93;;;;;;;-1.50;79.57;97110.47;5068942;28;20119;-71
2021/01/16 01:06:09;;;;;;;36.40;14.40;;;;;;;-1.57;79.46;97123.06;5069531;28;20454;-71
2021/01/16 01:08:35;;;;;;;27.92;12.88;;;;;;;-1.53;79.50;97112.75;5069057;28;20052;-71
2021/01/16 01:11:01;;;;;;;34.83;15.32;;;;;;;-1.55;79.31;97121.00;5069828;28;20040;-71
2021/01/16 01:13:28;;;;;;;33.45;13.60;;;;;;;-1.51;79.44;97110.66;5069238;28;20480;-71
2021/01/16 01:15:54;;;;;;;35.47;14.13;;;;;;;-1.56;79.44;97114.03;5072790;28;20048;-71
2021/01/16 01:18:20;;;;;;;27.48;13.25;;;;;;;-1.55;79.65;97112.16;5072988;28;20060;-71
2021/01/16 01:20:46;;;;;;;32.22;13.68;;;;;;;-1.56;79.53;97119.38;5072618;28;20056;-71
2021/01/16 01:23:12;;;;;;;28.98;13.30;;;;;;;-1.55;79.63;97113.00;5072959;28;20117;-71
2021/01/16 01:25:38;;;;;;;30.17;13.50;;;;;;;-1.59;79.27;97109.94;5072315;28;20495;-71
2021/01/16 01:28:04;;;;;;;32.58;14.68;;;;;;;-1.59;79.41;97109.13;5073098;28;20052;-71
2021/01/16 01:30:31;;;;;;;31.55;13.98;;;;;;;-1.66;79.44;97113.72;5072360;28;20045;-72
2021/01/16 01:32:59;;;;;;;33.00;14.30;;;;;;;-1.66;79.50;97116.41;5073003;28;20384;-71
2021/01/16 01:35:25;;;;;;;29.65;12.95;;;;;;;-1.62;79.28;97117.56;5071920;28;20047;-71
2021/01/16 01:37:54;;;;;;;36.05;14.52;;;;;;;-1.70;79.09;97120.53;5072694;28;20044;-71
2021/01/16 01:40:23;;;;;;;32.22;13.25;;;;;;;-1.76;79.05;97113.41;5072629;28;20445;-71
2021/01/16 01:42:51;;;;;;;31.83;13.07;;;;;;;-1.73;79.24;97123.63;5072820;28;20049;-71
2021/01/16 01:45:18;;;;;;;26.77;12.88;;;;;;;-1.74;79.01;97122.00;5072869;28;20411;-71
2021/01/16 01:47:46;;;;;;;36.78;14.43;;;;;;;-1.80;79.28;97117.56;5071936;28;20044;-71
2021/01/16 01:50:14;;;;;;;32.67;13.02;;;;;;;-1.79;79.39;97120.00;5072579;28;20059;-71
2021/01/16 01:52:41;;;;;;;32.40;13.48;;;;;;;-1.73;79.35;97118.31;5072148;28;20049;-71
2021/01/16 01:55:09;;;;;;;34.72;14.10;;;;;;;-1.71;79.37;97110.91;5072337;28;20075;-71
2021/01/16 01:57:38;;;;;;;30.17;13.55;;;;;;;-1.71;79.04;97116.25;5072237;28;20068;-70
2021/01/16 02:00:06;;;;;;;33.33;13.75;;;;;;;-1.68;79.23;97121.13;5071833;28;20056;-71
2021/01/16 02:02:35;;;;;;;29.05;12.75;;;;;;;-1.65;79.32;97123.38;5072589;28;20040;-71
2021/01/16 02:05:04;;;;;;;35.97;14.45;;;;;;;-1.55;79.29;97120.19;5071669;28;20040;-71
2021/01/16 02:07:37;;;;;;;25.00;12.00;;;;;;;-1.48;79.03;97120.91;5072324;28;20047;-71
2021/01/16 02:10:07;;;;;;;30.27;12.85;;;;;;;-1.49;79.10;97120.09;5071895;28;20484;-71
2021/01/16 02:12:33;;;;;;;30.00;13.75;;;;;;;-1.47;78.93;97118.00;5072914;28;20041;-71
2021/01/16 02:15:11;;;;;;;33.13;13.05;;;;;;;-1.42;78.78;97114.69;5071529;28;20045;-72
2021/01/16 02:17:41;;;;;;;33.72;14.38;;;;;;;-1.38;78.72;97118.53;5072140;28;20047;-71
2021/01/16 02:20:10;;;;;;;32.30;13.52;;;;;;;-1.34;78.58;97122.41;5071283;28;20102;-71
2021/01/16 02:23:09;;;;;;;29.80;13.25;;;;;;;-1.36;78.39;97114.63;5071851;28;20048;-71
2021/01/16 02:25:48;;;;;;;32.67;13.75;;;;;;;-1.41;78.29;97111.81;5055275;28;20103;-72
2021/01/16 02:28:21;;;;;;;27.35;12.68;;;;;;;-1.43;78.42;97111.19;5070902;28;20048;-71
2021/01/16 02:30:48;;;;;;;30.73;12.80;;;;;;;-1.46;78.41;97109.00;5072065;28;20147;-71
2021/01/16 02:33:19;;;;;;;32.85;14.32;;;;;;;-1.46;78.55;97109.00;5070622;28;20523;-70
2021/01/16 02:35:54;;;;;;;34.00;14.23;;;;;;;-1.56;78.73;97114.03;5071628;28;20056;-71
2021/01/16 02:38:28;;;;;;;28.80;13.02;;;;;;;-1.47;78.80;97104.66;5071310;28;20047;-71
2021/01/16 02:41:00;;;;;;;35.75;14.55;;;;;;;-1.42;78.72;97115.50;5071406;28;20044;-71
2021/01/16 02:43:35;;;;;;;31.70;14.20;;;;;;;-1.42;78.71;97110.16;5071690;28;20078;-71
2021/01/16 02:46:17;;;;;;;35.08;15.13;;;;;;;-1.41;78.88;97114.47;5070819;28;20122;-71
2021/01/16 02:49:04;;;;;;;37.15;14.63;;;;;;;-1.41;78.88;97111.81;5071316;28;20479;-71
2021/01/16 02:51:38;;;;;;;28.63;13.45;;;;;;;-1.38;78.74;97114.00;5071367;28;20511;-71
2021/01/16 02:54:05;;;;;;;35.72;15.23;;;;;;;-1.40;78.53;97115.28;5070190;28;20060;-71
2021/01/16 02:56:36;;;;;;;29.15;13.05;;;;;;;-1.39;78.56;97112.38;5071846;28;20075;-71
2021/01/16 02:59:03;;;;;;;31.90;14.20;;;;;;;-1.36;78.53;97109.28;5070043;28;20586;-71
2021/01/16 03:01:29;;;;;;;32.42;15.15;;;;;;;-1.40;78.35;97110.75;5071834;28;20123;-71
2021/01/16 03:03:55;;;;;;;30.48;13.60;;;;;;;-1.36;78.44;97109.28;5070425;28;20041;-71
2021/01/16 03:06:21;;;;;;;34.95;14.38;;;;;;;-1.40;78.31;97112.63;5070749;28;20048;-71
2021/01/16 03:08:47;;;;;;;32.58;14.70;;;;;;;-1.42;78.37;97115.50;5070687;28;20098;-71
2021/01/16 03:11:15;;;;;;;34.63;14.60;;;;;;;-1.40;78.25;97113.44;5070394;28;20422;-71
2021/01/16 03:13:44;;;;;;;32.83;14.15;;;;;;;-1.43;78.17;97113.88;5070824;28;20048;-71
2021/01/16 03:16:21;;;;;;;35.03;14.82;;;;;;;-1.45;78.23;97115.16;5070030;28;20079;-71
2021/01/16 03:18:55;;;;;;;29.63;12.82;;;;;;;-1.50;78.22;97117.66;5071503;28;20040;-71
2021/01/16 03:21:21;;;;;;;30.90;13.55;;;;;;;-1.53;78.43;97116.25;5069851;28;20048;-71
2021/01/16 03:23:47;;;;;;;32.70;14.05;;;;;;;-1.55;78.33;97114.84;5071266;28;20499;-71
2021/01/16 03:26:13;;;;;;;35.20;14.75;;;;;;;-1.53;78.33;97116.25;5069750;28;20053;-71
2021/01/16 03:28:39;;;;;;;37.72;15.10;;;;;;;-1.55;78.14;97113.00;5070775;28;20101;-71
2021/01/16 03:31:05;;;;;;;30.05;13.55;;;;;;;-1.51;78.04;97108.84;5084394;28;20051;-71
2021/01/16 03:33:32;;;;;;;36.15;14.43;;;;;;;-1.52;78.10;97112.53;5090408;28;20127;-71
2021/01/16 03:35:58;;;;;;;32.78;13.80;;;;;;;-1.51;77.94;97116.00;5090939;28;20101;-71
2021/01/16 03:38:24;;;;;;;36.03;15.15;;;;;;;-1.57;77.81;97117.72;5089601;28;20052;-71
2021/01/16 03:40:50;;;;;;;37.13;14.40;;;;;;;-1.53;77.72;97118.09;5090893;28;20048;-71
2021/01/16 03:43:16;;;;;;;35.20;14.48;;;;;;;-1.54;77.59;97111.94;5089294;28;20052;-71
2021/01/16 03:45:42;;;;;;;33.33;14.15;;;;;;;-1.57;77.58;97112.38;5091201;28;20052;-71
2021/01/16 03:48:08;;;;;;;34.00;14.50;;;;;;;-1.56;77.66;97116.69;5089467;28;20129;-71
2021/01/16 03:50:35;;;;;;;36.22;14.27;;;;;;;-1.54;77.63;97111.94;5090776;28;20044;-71
2021/01/16 03:53:01;;;;;;;35.92;14.73;;;;;;;-1.54;77.63;97109.28;5090086;28;20052;-71
2021/01/16 03:55:27;;;;;;;35.50;14.57;;;;;;;-1.51;77.47;97105.31;5090142;28;20036;-71
2021/01/16 03:57:53;;;;;;;30.25;13.52;;;;;;;-1.52;77.39;97104.50;5090376;28;20101;-71
2021/01/16 04:00:19;;;;;;;35.50;15.00;;;;;;;-1.74;77.51;97101.47;5079439;28;20044;-71
2021/01/16 04:02:45;;;;;;;33.60;14.05;;;;;;;-1.71;77.52;97110.91;5070502;28;20601;-71
2021/01/16 04:05:12;;;;;;;39.17;14.85;;;;;;;-1.68;77.51;97110.44;5069015;28;20044;-71
2021/01/16 04:07:39;;;;;;;31.92;14.38;;;;;;;-1.61;77.52;97111.22;5070671;28;20052;-70
2021/01/16 04:10:06;;;;;;;35.85;13.88;;;;;;;-1.69;77.39;97112.31;5079928;28;20048;-71
2021/01/16 04:12:32;;;;;;;31.92;13.98;;;;;;;-1.66;77.33;97111.88;5090764;28;20048;-71
2021/01/16 04:15:00;;;;;;;36.85;15.65;;;;;;;-1.73;77.10;97115.63;5089568;28;20052;-71
2021/01/16 04:17:26;;;;;;;34.58;13.93;;;;;;;-1.68;77.51;97113.13;5089908;28;20067;-71
2021/01/16 04:19:52;;;;;;;28.90;12.95;;;;;;;-1.70;77.39;97108.00;5089940;28;20486;-71
2021/01/16 04:22:18;;;;;;;31.98;13.50;;;;;;;-1.68;77.47;97105.09;5089381;28;20045;-71
2021/01/16 04:24:45;;;;;;;30.60;14.23;;;;;;;-1.70;77.49;97112.53;5090140;28;20052;-71
2021/01/16 04:27:11;;;;;;;38.30;14.55;;;;;;;-1.69;77.56;97108.81;5088931;28;20550;-71
2021/01/16 04:29:37;;;;;;;31.13;14.15;;;;;;;-1.68;77.20;97100.56;5086184;28;20090;-72
2021/01/16 04:32:03;;;;;;;34.58;13.75;;;;;;;-1.66;77.30;97111.06;5069845;28;20122;-70
2021/01/16 04:34:29;;;;;;;34.47;15.02;;;;;;;-1.78;77.59;97110.13;5070384;28;20399;-71
2021/01/16 04:36:55;;;;;;;33.88;14.80;;;;;;;-1.76;77.87;97118.75;5068317;28;20076;-71
2021/01/16 04:39:21;;;;;;;35.50;14.50;;;;;;;-1.78;77.97;97115.47;5074685;28;20441;-72
2021/01/16 04:41:52;;;;;;;34.40;14.85;;;;;;;-1.84;78.24;97117.19;5089335;28;20079;-71
2021/01/16 04:44:21;;;;;;;37.22;16.20;;;;;;;-1.90;78.46;97116.22;5089303;28;20453;-71
2021/01/16 04:46:48;;;;;;;37.42;15.85;;;;;;;-1.95;78.83;97118.72;5089563;28;20048;-71
2021/01/16 04:49:15;;;;;;;39.58;15.18;;;;;;;-1.95;79.12;97108.03;5090546;28;20044;-71
2021/01/16 04:51:47;;;;;;;43.78;16.35;;;;;;;-1.87;79.11;97118.44;5094074;28;20052;-72
2021/01/16 04:54:15;;;;;;;41.92;16.85;;;;;;;-1.88;79.16;97115.97;5092600;28;20048;-71
2021/01/16 04:56:41;;;;;;;38.13;16.90;;;;;;;-1.93;79.41;97113.16;5094233;28;20052;-71
2021/01/16 04:59:08;;;;;;;39.20;14.73;;;;;;;-1.85;79.18;97120.88;5092666;28;20048;-71
2021/01/16 05:01:34;;;;;;;37.78;14.80;;;;;;;-1.86;79.20;97116.59;5073597;28;20055;-71
2021/01/16 05:04:00;;;;;;;41.28;16.70;;;;;;;-1.81;79.23;97116.75;5072800;28;20072;-71
2021/01/16 05:06:28;;;;;;;42.53;17.23;;;;;;;-1.77;79.11;97109.94;5072830;28;20036;-71
2021/01/16 05:08:55;;;;;;;42.20;17.40;;;;;;;-1.87;79.02;97113.09;5056402;28;20130;-71
2021/01/16 05:11:34;;;;;;;42.83;17.65;;;;;;;-1.90;79.53;97115.41;5092773;28;20056;-71
2021/01/16 05:14:12;;;;;;;41.13;17.30;;;;;;;-1.89;79.55;97114.34;5093745;28;20523;-71
2021/01/16 05:16:49;;;;;;;44.55;16.73;;;;;;;-1.86;79.58;97109.41;5092576;28;20526;-70
2021/01/16 05:19:15;;;;;;;41.53;16.75;;;;;;;-1.80;79.50;97117.56;5093196;28;20044;-72
2021/01/16 05:21:42;;;;;;;43.50;16.17;;;;;;;-1.90;79.35;97112.72;5092646;28;20085;-71
2021/01/16 05:24:10;;;;;;;41.60;16.95;;;;;;;-1.87;79.47;97121.13;5092737;28;20491;-71
2021/01/16 05:26:59;;;;;;;44.45;17.15;;;;;;;-1.93;79.47;97122.00;5093033;28;20139;-71
2021/01/16 05:29:26;;;;;;;48.42;18.38;;;;;;;-1.96;79.54;97127.75;5087979;28;20043;-71
2021/01/16 05:31:55;;;;;;;36.50;16.25;;;;;;;-1.88;79.57;97122.16;5093623;28;20664;-71
2021/01/16 05:34:23;;;;;;;41.03;16.27;;;;;;;-1.95;79.55;97124.06;5092105;28;20052;-71
2021/01/16 05:36:50;;;;;;;40.92;16.65;;;;;;;-1.92;79.50;97118.28;5093475;28;20052;-71
2021/01/16 05:39:17;;;;;;;39.42;17.08;;;;;;;-1.91;79.57;97117.25;5091917;28;20094;-71
2021/01/16 05:41:44;;;;;;;42.92;16.70;;;;;;;-1.84;79.54;97120.66;5093128;28;20081;-71
2021/01/16 05:44:11;;;;;;;41.38;17.55;;;;;;;-1.99;79.24;97114.03;5074011;28;20048;-70
2021/01/16 05:46:43;;;;;;;43.22;17.15;;;;;;;-2.01;79.56;97111.59;5092817;28;20044;-72
2021/01/16 05:49:15;;;;;;;39.45;16.00;;;;;;;-1.99;79.79;97114.03;5092200;28;20077;-70
2021/01/16 05:51:43;;;;;;;42.88;16.85;;;;;;;-2.00;79.48;97113.22;5092126;28;20772;-71
2021/01/16 05:54:09;;;;;;;40.72;15.98;;;;;;;-2.05;79.48;97110.41;5092381;28;20059;-71
2021/01/16 05:56:38;;;;;;;39.03;16.52;;;;;;;-1.99;79.69;97112.19;5091838;28;20051;-71
2021/01/16 05:59:09;;;;;;;43.65;16.05;;;;;;;-1.94;79.38;97112.34;5092457;28;20129;-71
2021/01/16 06:01:37;;;;;;;38.42;16.05;;;;;;;-1.99;79.10;97114.03;5071755;28;20044;-71
2021/01/16 06:04:04;;;;;;;42.40;17.45;;;;;;;-2.00;79.31;97113.22;5071918;28;20040;-70
2021/01/16 06:06:33;;;;;;;37.28;15.93;;;;;;;-2.08;79.35;97110.84;5072111;28;20106;-71
2021/01/16 06:08:59;;;;;;;43.42;17.60;;;;;;;-2.05;79.14;97110.41;5073762;28;20415;-71
2021/01/16 06:11:25;;;;;;;36.65;15.82;;;;;;;-1.98;79.16;97115.69;5091918;28;20104;-71
2021/01/16 06:13:55;;;;;;;44.13;17.02;;;;;;;-2.00;78.47;97107.06;5091709;28;20090;-71
2021/01/16 06:16:22;;;;;;;37.05;15.02;;;;;;;-2.08;78.62;97112.72;5092244;28;20101;-71
2021/01/16 06:18:52;;;;;;;36.85;15.90;;;;;;;-2.04;78.61;97112.03;5091483;28;20048;-70
2021/01/16 06:21:25;;;;;;;34.05;14.48;;;;;;;-2.01;77.99;97113.44;5092041;28;20044;-71
2021/01/16 06:23:55;;;;;;;34.22;14.73;;;;;;;-2.10;77.95;97113.72;5091459;28;20044;-71
2021/01/16 06:26:21;;;;;;;42.70;16.38;;;;;;;-2.18;78.15;97121.19;5091389;28;20051;-71
2021/01/16 06:28:55;;;;;;;32.92;15.40;;;;;;;-2.20;78.31;97112.56;5091662;28;20529;-71
2021/01/16 06:31:23;;;;;;;39.13;15.38;;;;;;;-2.12;78.14;97112.31;5090329;28;20580;-70
2021/01/16 06:33:58;;;;;;;34.60;15.27;;;;;;;-2.05;77.91;97115.72;5092099;28;20044;-71
2021/01/16 06:36:28;;;;;;;42.65;16.58;;;;;;;-2.11;78.09;97117.44;5090839;28;20040;-71
2021/01/16 06:38:56;;;;;;;38.90;15.88;;;;;;;-2.06;78.22;97115.97;5092568;28;20052;-70
2021/01/16 06:41:27;;;;;;;35.92;14.57;;;;;;;-2.05;78.23;97114.91;5090571;28;20055;-71
2021/01/16 06:43:54;;;;;;;35.15;14.73;;;;;;;-2.08;78.41;97116.19;5091977;28;20063;-71
2021/01/16 06:46:43;;;;;;;36.25;15.55;;;;;;;-2.24;78.59;97111.41;5090721;28;20044;-71
2021/01/16 06:49:19;;;;;;;43.05;15.98;;;;;;;-2.34;78.93;97111.88;5090966;28;20100;-71
2021/01/16 06:51:46;;;;;;;37.65;16.30;;;;;;;-2.45;79.09;97116.06;5091818;28;20048;-71
2021/01/16 06:54:12;;;;;;;38.65;15.65;;;;;;;-2.39;79.16;97112.53;5090364;28;20048;-71
2021/01/16 06:56:40;;;;;;;32.72;14.35;;;;;;;-2.31;78.98;97110.63;5092072;28;20043;-70
2021/01/16 06:59:13;;;;;;;32.05;13.88;;;;;;;-2.24;78.66;97112.22;5090405;28;20059;-71
2021/01/16 07:01:40;;;;;;;35.35;14.23;;;;;;;-2.18;78.56;97115.88;5071705;28;20048;-71
2021/01/16 07:04:11;;;;;;;31.88;13.32;;;;;;;-2.11;78.42;97117.44;5070475;28;20044;-71
2021/01/16 07:06:48;;;;;;;36.78;14.90;;;;;;;-2.10;77.82;97123.56;5071318;28;20122;-71
2021/01/16 07:09:18;;;;;;;36.83;14.68;;;;;;;-2.21;77.84;97118.94;5074448;28;20414;-71
2021/01/16 07:11:46;;;;;;;36.47;14.70;;;;;;;-2.19;77.66;97119.56;5089988;28;20524;-71
2021/01/16 07:14:12;;;;;;;30.88;12.80;;;;;;;-2.17;76.76;97120.16;5091208;28;20077;-71
2021/01/16 07:16:42;;;;;;;28.35;12.70;;;;;;;-2.10;76.81;97123.56;5090325;28;20168;-71
2021/01/16 07:19:08;;;;;;;31.27;12.80;;;;;;;-2.01;76.63;97130.28;5090925;28;20501;-71
2021/01/16 07:21:39;;;;;;;28.40;12.60;;;;;;;-1.99;76.25;97125.53;5090263;28;20044;-71
2021/01/16 07:24:09;;;;;;;36.15;13.32;;;;;;;-1.97;76.05;97128.00;5090526;28;20055;-71
2021/01/16 07:26:36;;;;;;;28.10;12.23;;;;;;;-1.98;74.95;97132.53;5090563;28;20414;-71
2021/01/16 07:29:05;;;;;;;31.35;13.38;;;;;;;-2.07;74.66;97133.00;5090243;28;20044;-70
2021/01/16 07:31:36;;;;;;;27.58;11.90;;;;;;;-1.97;74.81;97134.16;5070578;28;20453;-71
2021/01/16 07:34:03;;;;;;;32.58;12.35;;;;;;;-1.98;74.64;97137.84;5069512;28;20048;-71
2021/01/16 07:36:30;;;;;;;30.30;11.43;;;;;;;-1.87;74.37;97139.81;5071070;28;20036;-71
2021/01/16 07:38:56;;;;;;;30.40;12.68;;;;;;;-1.87;74.24;97139.81;5071128;28;20506;-71
2021/01/16 07:41:30;;;;;;;28.10;12.13;;;;;;;-1.94;74.43;97139.03;5090486;28;20047;-71
2021/01/16 07:44:06;;;;;;;26.73;11.85;;;;;;;-1.86;74.40;97136.09;5090119;28;20055;-71
2021/01/16 07:46:32;;;;;;;32.30;13.55;;;;;;;-1.93;74.89;97143.34;5090284;28;20044;-71
2021/01/16 07:49:00;;;;;;;27.25;11.93;;;;;;;-2.13;75.06;97148.03;5090533;28;20048;-71
2021/01/16 07:51:31;;;;;;;29.10;11.88;;;;;;;-2.00;74.98;97145.25;5089731;28;20048;-70
2021/01/16 07:54:02;;;;;;;35.85;13.60;;;;;;;-2.14;75.47;97149.06;5090873;28;20126;-71
2021/01/16 07:56:37;;;;;;;31.13;13.43;;;;;;;-2.27;76.47;97147.31;5089653;28;20040;-71
2021/01/16 07:59:08;;;;;;;34.78;13.70;;;;;;;-2.31;76.81;97142.63;5090303;28;20048;-71
2021/01/16 08:01:46;;;;;;;33.05;13.82;;;;;;;-2.41;77.21;97143.94;5089124;28;20048;-71
2021/01/16 08:04:23;;;;;;;36.60;13.75;;;;;;;-2.36;77.44;97138.75;5090035;28;20040;-71
2021/01/16 08:07:04;;;;;;;34.20;15.35;;;;;;;-2.49;77.77;97144.19;5090504;28;20044;-71
2021/01/16 08:09:52;;;;;;;40.03;15.82;;;;;;;-2.43;77.77;97135.34;5089364;28;20478;-71
2021/01/16 08:12:21;;;;;;;33.72;13.82;;;;;;;-2.36;77.85;97146.75;5090251;28;20407;-71
2021/01/16 08:14:47;;;;;;;33.50;13.88;;;;;;;-2.48;78.00;97137.03;5090740;28;20054;-71
2021/01/16 08:17:17;;;;;;;39.83;16.48;;;;;;;-2.51;78.59;97135.59;5089809;28;20040;-71
2021/01/16 08:20:07;;;;;;;36.63;14.60;;;;;;;-2.37;78.59;97137.13;5089621;28;20410;-72
2021/01/16 08:22:38;;;;;;;36.33;15.23;;;;;;;-2.45;78.42;97144.59;5089409;28;20040;-72
2021/01/16 08:25:06;;;;;;;37.83;15.45;;;;;;;-2.37;78.48;97141.66;5092864;28;20676;-71
2021/01/16 08:27:35;;;;;;;42.42;15.43;;;;;;;-2.30;78.19;97139.75;5088610;28;20055;-72
2021/01/16 08:30:10;;;;;;;44.42;15.65;;;;;;;-2.29;78.14;97140.59;5089873;28;20483;-72
2021/01/16 08:32:57;;;;;;;37.28;15.35;;;;;;;-2.34;78.32;97148.41;5089913;28;20771;-72
2021/01/16 08:35:26;;;;;;;42.92;16.80;;;;;;;-2.24;78.24;97146.09;5090531;28;20048;-72
2021/01/16 08:37:52;;;;;;;38.33;15.52;;;;;;;-2.15;77.85;97145.56;5091015;28;20052;-72
2021/01/16 08:40:36;;;;;;;39.83;15.10;;;;;;;-2.11;77.99;97146.78;5090720;28;20121;-72
2021/01/16 08:43:03;;;;;;;41.13;15.93;;;;;;;-2.15;77.78;97136.75;5090815;28;20544;-72
2021/01/16 08:45:29;;;;;;;38.35;15.75;;;;;;;-2.11;77.93;97137.97;5089981;28;20047;-72
2021/01/16 08:47:57;;;;;;;39.60;15.77;;;;;;;-1.99;77.71;97138.06;5091225;28;20047;-72
2021/01/16 08:50:28;;;;;;;38.90;15.60;;;;;;;-1.89;77.26;97138.38;5089646;28;20101;-73
2021/01/16 08:52:54;;;;;;;40.40;15.63;;;;;;;-1.73;77.18;97134.31;5090524;28;20052;-69
2021/01/16 08:55:26;;;;;;;46.45;16.23;;;;;;;-1.75;76.00;97139.06;5089165;28;20093;-69
2021/01/16 08:58:07;;;;;;;42.45;15.63;;;;;;;-1.89;76.33;97139.19;5088721;28;20075;-70
2021/01/16 09:00:34;;;;;;;34.45;15.02;;;;;;;-1.94;76.47;97138.22;5088844;28;20128;-69
2021/01/16 09:03:17;;;;;;;40.15;14.23;;;;;;;-1.77;76.22;97138.50;5089213;28;20533;-69
2021/01/16 09:05:45;;;;;;;33.00;13.20;;;;;;;-1.80;75.85;97145.06;5090308;28;20044;-70
2021/01/16 09:08:22;;;;;;;34.17;13.27;;;;;;;-1.61;75.94;97156.59;5089343;28;20040;-70
2021/01/16 09:10:48;;;;;;;35.38;13.93;;;;;;;-1.61;75.30;97153.94;5089487;28;20051;-70
2021/01/16 09:13:27;;;;;;;40.28;15.68;;;;;;;-1.52;75.18;97147.25;5089212;28;20068;-70
2021/01/16 09:15:53;;;;;;;38.50;14.52;;;;;;;-1.44;74.58;97149.63;5089072;28;20101;-70
2021/01/16 09:18:20;;;;;;;34.30;13.70;;;;;;;-1.53;74.12;97155.50;5089733;28;20469;-70
2021/01/16 09:20:47;;;;;;;34.72;14.02;;;;;;;-1.52;73.74;97157.13;5089349;28;20051;-69
2021/01/16 09:23:27;;;;;;;36.42;14.20;;;;;;;-1.49;73.94;97151.34;5089928;28;20052;-70
2021/01/16 09:25:55;;;;;;;31.73;13.25;;;;;;;-1.40;73.62;97158.03;5089186;28;20062;-70
2021/01/16 09:28:45;;;;;;;33.80;14.13;;;;;;;-1.40;73.56;97155.38;5089568;28;20048;-70
2021/01/16 09:31:29;;;;;;;33.25;13.70;;;;;;;-1.44;71.89;97149.63;5088198;28;20421;-70
2021/01/16 09:33:57;;;;;;;35.00;12.70;;;;;;;-1.44;72.43;97154.97;5089246;28;20051;-70
2021/01/16 09:36:42;;;;;;;27.35;12.77;;;;;;;-1.41;72.30;97151.88;5089555;28;20604;-71
2021/01/16 09:39:20;;;;;;;32.65;12.88;;;;;;;-1.32;71.85;97153.19;5087272;28;20133;-70
2021/01/16 09:41:47;;;;;;;39.13;14.10;;;;;;;-1.22;71.68;97159.88;5089531;28;20047;-70
2021/01/16 09:44:14;;;;;;;34.05;12.88;;;;;;;-1.06;71.72;97152.06;5088556;28;20109;-70
2021/01/16 09:46:41;;;;;;;33.10;13.10;;;;;;;-1.10;70.49;97155.41;5088713;28;20640;-69
2021/01/16 09:49:09;;;;;;;33.03;12.40;;;;;;;-1.10;70.11;97148.22;5087794;28;20514;-70
2021/01/16 09:51:37;;;;;;;34.50;12.15;;;;;;;-1.02;69.79;97147.09;5088629;28;20564;-70
2021/01/16 09:54:14;;;;;;;31.65;12.45;;;;;;;-1.03;69.90;97140.13;5087967;28;20201;-70
2021/01/16 09:56:46;;;;;;;27.63;11.70;;;;;;;-1.02;69.48;97136.41;5087584;28;20047;-70
2021/01/16 09:59:20;;;;;;;28.38;10.85;;;;;;;-1.19;69.06;97140.75;5087317;28;20052;-70
2021/01/16 10:01:46;;;;;;;31.00;11.32;;;;;;;-1.17;69.24;97127.97;5088612;28;20052;-70
2021/01/16 10:04:22;;;;;;;36.30;13.27;;;;;;;-1.06;69.81;97124.53;5088349;28;20472;-70
2021/01/16 10:06:49;;;;;;;24.63;10.30;;;;;;;-0.96;68.28;97124.81;5088867;28;20062;-70
2021/01/16 10:09:20;;;;;;;30.95;11.98;;;;;;;-1.12;68.19;97120.09;5087723;28;20040;-70
2021/01/16 10:11:47;;;;;;;37.00;12.60;;;;;;;-1.17;67.91;97109.25;5088751;28;20102;-70
2021/01/16 10:14:15;;;;;;;31.48;11.55;;;;;;;-0.96;68.49;97110.63;5086751;28;20082;-70
2021/01/16 10:16:43;;;;;;;26.15;10.25;;;;;;;-0.81;68.59;97105.69;5082723;28;20044;-70
2021/01/16 10:19:12;;;;;;;30.30;11.27;;;;;;;-1.01;67.93;97100.59;5067465;28;20048;-71
2021/01/16 10:21:48;;;;;;;36.22;12.40;;;;;;;-1.09;67.88;97098.25;5068397;28;20084;-70
2021/01/16 10:24:19;;;;;;;27.42;10.63;;;;;;;-0.87;69.69;97099.41;5067648;28;20040;-70
2021/01/16 10:26:46;;;;;;;24.20;9.93;;;;;;;-0.80;67.20;97094.75;5068415;28;20177;-70
2021/01/16 10:29:25;;;;;;;30.27;11.77;;;;;;;-0.85;66.74;97088.47;5068001;28;20048;-70
2021/01/16 10:31:51;;;;;;;34.10;11.55;;;;;;;-0.73;67.35;97085.81;5087949;28;20048;-70
2021/01/16 10:34:17;;;;;;;27.13;10.98;;;;;;;-0.87;66.76;97088.69;5088407;28;20055;-70
2021/01/16 10:36:44;;;;;;;23.38;10.02;;;;;;;-0.76;67.30;97087.09;5088842;28;20056;-70
2021/01/16 10:39:12;;;;;;;26.15;10.90;;;;;;;-0.77;68.32;97082.00;5088724;28;20044;-70
2021/01/16 10:41:41;;;;;;;23.13;10.20;;;;;;;-0.66;67.16;97079.34;5088562;28;20050;-70
2021/01/16 10:44:08;;;;;;;29.75;12.27;;;;;;;-0.67;66.92;97074.22;5074219;28;20047;-70
2021/01/16 10:46:41;;;;;;;29.83;11.52;;;;;;;-0.49;67.77;97068.78;5066659;28;20059;-70
2021/01/16 10:49:15;;;;;;;32.35;12.18;;;;;;;-0.78;67.11;97067.81;5067148;28;20051;-70
2021/01/16 10:51:48;;;;;;;30.95;11.55;;;;;;;-0.90;67.44;97064.25;5068406;28;20503;-70
2021/01/16 10:54:15;;;;;;;30.60;12.77;;;;;;;-0.69;67.82;97066.41;5066536;28;20047;-70
2021/01/16 10:56:44;;;;;;;32.22;12.50;;;;;;;-0.81;67.50;97063.72;5068418;28;20048;-70
2021/01/16 10:59:12;;;;;;;30.98;12.38;;;;;;;-0.74;67.07;97057.44;5067418;28;20059;-70
2021/01/16 11:01:47;;;;;;;35.15;12.27;;;;;;;-0.78;68.04;97054.44;5066704;28;20056;-71
2021/01/16 11:04:18;;;;;;;28.38;12.50;;;;;;;-0.79;67.80;97056.28;5066669;28;20078;-70
2021/01/16 11:06:50;;;;;;;32.60;12.45;;;;;;;-0.74;67.62;97046.75;5067735;28;20056;-71
2021/01/16 11:09:52;;;;;;;32.35;12.57;;;;;;;-0.73;67.43;97043.88;5053911;28;20048;-70
2021/01/16 11:12:27;;;;;;;30.83;13.05;;;;;;;-0.70;67.21;97043.41;5086245;28;20594;-70
2021/01/16 11:14:53;;;;;;;35.67;13.70;;;;;;;-0.81;66.60;97041.50;5087618;28;20060;-70
2021/01/16 11:17:20;;;;;;;35.28;13.52;;;;;;;-0.74;67.54;97030.72;5086842;28;20422;-70
2021/01/16 11:19:53;;;;;;;36.17;13.38;;;;;;;-0.71;67.49;97036.41;5087620;28;20052;-71
2021/01/16 11:22:21;;;;;;;32.55;13.57;;;;;;;-0.56;68.75;97026.09;5087098;28;20052;-70
2021/01/16 11:25:14;;;;;;;33.08;12.93;;;;;;;-0.68;67.06;97030.63;5087111;28;20495;-71
2021/01/16 11:28:04;;;;;;;31.98;12.57;;;;;;;-0.83;67.46;97027.56;5087843;28;20079;-71